หน้าหลัก
METAR-TAF:

METAR-TAF

ท่าอากาศยาน :

Mosjøen, นอร์เวย์

ละติจูด: 65-48N, ลองจิจูด: 013-08E, ความสูง: 70 ม.

การสังเกตสภาพอากาศปัจจุบัน

รายงานได้ทำขึ้นเมื่อ 15 นาทีที่แล้ว ณ เวลา 23:50 UTC
ลมสงบ
อุณหภูมิ 12°C
ความชื้น 88%
ความกดอากาศ 1018 hPa
ทัศนวิสัย 10 กม. หรือมากกว่า

METAR: ENMS 122350Z AUTO 00000KT 9999 OVC026/// 12/10 Q1018 RMK WIND 412FT 00000KT

เวลา: 02:05 (00:05 UTC)

การพยากรณ์

รายงานได้ทำขึ้นเมื่อ 10 ชั่วโมงและ 5 นาทีที่แล้ว ณ เวลา 14:00 UTC
การพยากรณ์มีผลตั้งแต่วันที่ 12 ณ เวลา 15 UTC จนถึงวันที่ 12 ณ เวลา 21 UTC
ลม 5 นอตจากเหนือ
ทัศนวิสัย 10 กม. หรือมากกว่า
มีเมฆกระจายเป็นบางส่วนที่ความสูง 2000 ฟุต
มีเมฆเป็นส่วนมากเว้นเป็นระยะที่ความสูง 4000 ฟุต

TAF: ENMS 121400Z 1215/1221 35005KT 9999 SCT020 BKN040

สังเกตการณ์สภาพอากาศและพยากรณ์อากาศของสนามบินมากกว่า 4000 แห่ง (รายงาน METAR และ TAF).

สถานีที่ดูได้จะแสดงไว้ด้วยจุดสีเหลืองและสีแดงบนแผนที่.

เลื่อนเมาส์ไปเหนือจุดเพื่อดูชื่อสถานี.

แล้วคลิกเพื่อดูสังเกตการณ์และการพยากรณ์สภาพอากาศ.

ในการเปลี่ยนแผนที่: คลิกที่ปุ่มสีเขียวที่มีกากบาทสีดำเพื่อซูมเข้า; ที่ปุ่มสีเขียวที่มีขีดเพื่อซูมออก; หรือที่ลูกศรสีเขียวเพื่อไปยังแผนที่ที่อยู่ติดกัน.


METAR-TAF: